Time;durP1;ratioP1;P1;durP2;ratioP2;P2;SDS_P1;SDS_P2;PMS_P1;PMS_P2;Temp;Humidity;BMP_temperature;BMP_pressure;BME280_temperature;BME280_humidity;BME280_pressure;Samples;Min_cycle;Max_cycle;Signal;HPM_P1;HPM_P2
2023/01/07 00:01:05;;;;;;;11.73;7.65;;;;;;;13.28;61.95;99176.47;5136441;27;20023;-45
2023/01/07 00:03:31;;;;;;;12.45;8.02;;;;;;;12.99;62.80;99161.91;5136713;27;20504;-45
2023/01/07 00:06:05;;;;;;;24.63;9.10;;;;;;;12.91;64.36;99170.81;5135068;27;20034;-45
2023/01/07 00:08:33;;;;;;;16.60;7.45;;;;;;;13.05;63.92;99165.53;5135301;27;20028;-45
2023/01/07 00:11:08;;;;;;;8.80;7.10;;;;;;;13.13;63.85;99163.50;5136244;27;20035;-45
2023/01/07 00:13:34;;;;;;;9.65;6.68;;;;;;;13.14;63.23;99161.69;5136302;27;20028;-45
2023/01/07 00:16:02;;;;;;;11.55;6.78;;;;;;;13.08;63.50;99157.22;5134910;27;20401;-45
2023/01/07 00:18:27;;;;;;;9.15;7.40;;;;;;;12.96;63.48;99149.94;5136114;27;20064;-45
2023/01/07 00:20:57;;;;;;;11.88;8.23;;;;;;;12.90;63.41;99149.97;5134420;27;20040;-45
2023/01/07 00:23:24;;;;;;;12.50;6.53;;;;;;;12.91;63.67;99147.09;5134732;27;20023;-45
2023/01/07 00:25:50;;;;;;;8.45;6.57;;;;;;;13.00;62.33;99147.72;5134986;27;20138;-45
2023/01/07 00:28:16;;;;;;;18.30;7.55;;;;;;;12.97;61.96;99142.84;5136002;27;20016;-45
2023/01/07 00:30:42;;;;;;;10.65;7.28;;;;;;;12.76;61.85;99146.53;5134537;27;20396;-45
2023/01/07 00:33:11;;;;;;;10.20;6.80;;;;;;;12.46;62.52;99144.28;5134680;27;20238;-45
2023/01/07 00:35:37;;;;;;;11.52;7.72;;;;;;;12.44;63.52;99134.97;5135730;27;20026;-46
2023/01/07 00:38:04;;;;;;;10.85;7.20;;;;;;;12.49;62.46;99130.69;5136057;27;20454;-45
2023/01/07 00:40:31;;;;;;;13.13;8.27;;;;;;;12.37;63.18;99122.59;5134586;27;20024;-45
2023/01/07 00:43:00;;;;;;;8.05;6.70;;;;;;;12.34;63.72;99124.81;5135726;27;20026;-45
2023/01/07 00:45:31;;;;;;;7.13;6.05;;;;;;;12.56;63.12;99126.25;5135648;27;20524;-45
2023/01/07 00:48:01;;;;;;;10.02;7.28;;;;;;;12.67;62.02;99121.38;5134309;27;20027;-45
2023/01/07 00:50:30;;;;;;;9.57;6.72;;;;;;;12.43;62.21;99123.59;5133533;27;20031;-45
2023/01/07 00:52:56;;;;;;;9.38;7.13;;;;;;;12.27;63.29;99124.00;5134530;27;20015;-45
2023/01/07 00:55:23;;;;;;;9.20;6.65;;;;;;;12.13;64.47;99121.34;5134110;27;20484;-45
2023/01/07 00:57:49;;;;;;;9.30;6.78;;;;;;;12.12;64.79;99119.72;5135488;27;20046;-45
2023/01/07 01:00:17;;;;;;;11.98;8.48;;;;;;;11.96;64.34;99114.81;5134037;27;20456;-45
2023/01/07 01:02:43;;;;;;;10.77;8.65;;;;;;;11.60;65.31;99115.88;5135603;27;20088;-45
2023/01/07 01:05:10;;;;;;;11.38;8.07;;;;;;;11.37;66.59;99118.84;5134126;27;20023;-47
2023/01/07 01:07:36;;;;;;;14.75;8.13;;;;;;;11.36;67.71;99112.75;5135310;27;20102;-48
2023/01/07 01:10:03;;;;;;;9.65;7.70;;;;;;;11.44;67.70;99113.59;5134203;27;20038;-47
2023/01/07 01:12:29;;;;;;;10.57;7.32;;;;;;;11.40;67.95;99115.78;5135155;27;20023;-48
2023/01/07 01:14:55;;;;;;;13.25;8.35;;;;;;;11.31;67.72;99114.34;5135093;27;20019;-48
2023/01/07 01:17:21;;;;;;;10.50;8.05;;;;;;;11.26;68.06;99114.91;5135007;27;20721;-48
2023/01/07 01:19:47;;;;;;;9.70;7.70;;;;;;;11.10;67.72;99109.97;5134853;27;20102;-48
2023/01/07 01:22:13;;;;;;;14.85;7.60;;;;;;;10.95;68.35;99110.91;5134823;27;20443;-48
2023/01/07 01:24:38;;;;;;;12.50;7.38;;;;;;;10.88;68.47;99110.03;5133582;27;20031;-48
2023/01/07 01:27:04;;;;;;;9.55;7.32;;;;;;;11.00;69.81;99099.81;5134817;27;20023;-48
2023/01/07 01:29:30;;;;;;;11.43;8.38;;;;;;;11.07;68.68;99098.06;5133820;27;20157;-47
2023/01/07 01:31:55;;;;;;;8.60;7.13;;;;;;;10.97;69.91;99103.63;5134693;27;20034;-47
2023/01/07 01:34:21;;;;;;;8.70;7.63;;;;;;;11.14;69.89;99098.06;5134873;27;20031;-48
2023/01/07 01:36:47;;;;;;;10.23;7.78;;;;;;;11.16;68.43;99101.31;5134623;27;20026;-48
2023/01/07 01:39:13;;;;;;;11.48;8.00;;;;;;;10.91;69.02;99095.72;5134511;27;20401;-48
2023/01/07 01:41:39;;;;;;;11.75;8.02;;;;;;;10.83;68.79;99101.94;5134459;27;20444;-47
2023/01/07 01:44:34;;;;;;;11.55;8.68;;;;;;;10.51;69.29;99093.63;5133222;27;20034;-47
2023/01/07 01:47:03;;;;;;;10.50;7.57;;;;;;;10.33;71.23;99094.06;5134475;27;20030;-47
2023/01/07 01:49:34;;;;;;;11.52;8.05;;;;;;;10.48;71.41;99099.22;5134614;27;20271;-48
2023/01/07 01:52:05;;;;;;;10.25;7.72;;;;;;;10.36;70.76;99096.31;5134390;27;20031;-47
2023/01/07 01:54:32;;;;;;;11.00;7.93;;;;;;;10.45;71.03;99111.94;5134677;27;20042;-47
2023/01/07 01:57:01;;;;;;;11.18;7.90;;;;;;;10.32;70.36;99105.56;5132921;27;20019;-47
2023/01/07 01:59:35;;;;;;;9.90;8.23;;;;;;;10.04;70.57;99108.09;5115979;27;20519;-47
2023/01/07 02:02:01;;;;;;;14.65;7.72;;;;;;;9.81;71.22;99095.13;5133085;27;20038;-48
2023/01/07 02:04:29;;;;;;;9.30;8.35;;;;;;;9.66;71.73;99095.19;5134396;27;20039;-47
2023/01/07 02:06:58;;;;;;;14.90;7.90;;;;;;;9.50;72.96;99092.78;5134071;27;20496;-48
2023/01/07 02:09:24;;;;;;;13.65;8.40;;;;;;;9.58;72.94;99090.06;5132996;27;20023;-48
2023/01/07 02:11:49;;;;;;;10.52;8.35;;;;;;;9.64;73.05;99081.47;5133942;27;20508;-48
2023/01/07 02:14:43;;;;;;;10.30;8.30;;;;;;;9.46;72.93;99076.59;5132604;27;20024;-47
2023/01/07 02:17:20;;;;;;;11.40;8.38;;;;;;;9.34;73.53;99080.69;5132441;27;20028;-48
2023/01/07 02:20:15;;;;;;;14.52;8.18;;;;;;;9.33;74.12;99077.25;5133801;27;20026;-47
2023/01/07 02:23:04;;;;;;;13.73;8.65;;;;;;;9.27;73.89;99077.16;5133720;27;20052;-47
2023/01/07 02:25:45;;;;;;;12.23;8.02;;;;;;;9.27;74.70;99072.72;5133704;27;20106;-47
2023/01/07 02:28:19;;;;;;;12.63;9.10;;;;;;;9.38;74.80;99066.22;5133719;27;20054;-47
2023/01/07 02:31:06;;;;;;;12.95;7.78;;;;;;;9.48;73.44;99064.13;5133677;27;20027;-48
2023/01/07 02:33:40;;;;;;;11.73;7.13;;;;;;;9.52;72.04;99069.81;5133593;27;20027;-48
2023/01/07 02:36:38;;;;;;;7.72;6.70;;;;;;;9.54;71.66;99063.41;5132441;27;20031;-48
2023/01/07 02:39:25;;;;;;;16.88;7.93;;;;;;;9.58;72.44;99058.63;5132196;27;20079;-47
2023/01/07 02:41:58;;;;;;;12.73;8.20;;;;;;;9.60;72.17;99052.19;5132080;27;20024;-47
2023/01/07 02:44:23;;;;;;;10.85;8.60;;;;;;;9.45;73.15;99047.97;5133331;27;20515;-47
2023/01/07 02:46:57;;;;;;;11.45;7.97;;;;;;;9.50;74.50;99043.00;5133373;27;20049;-47
2023/01/07 02:49:23;;;;;;;13.60;8.13;;;;;;;9.51;73.13;99036.75;5132312;27;20027;-47
2023/01/07 02:51:50;;;;;;;11.10;8.85;;;;;;;9.35;72.84;99027.28;5133164;27;20080;-47
2023/01/07 02:54:24;;;;;;;11.15;8.27;;;;;;;9.15;74.46;99022.63;5133230;27;20047;-48
2023/01/07 02:56:53;;;;;;;11.57;9.63;;;;;;;9.19;74.46;99020.47;5133209;27;20058;-47
2023/01/07 02:59:21;;;;;;;14.48;8.48;;;;;;;9.15;74.32;99017.38;5133126;27;20057;-47
2023/01/07 03:01:47;;;;;;;10.73;8.30;;;;;;;9.14;74.64;99021.00;5132949;27;20124;-47
2023/01/07 03:04:34;;;;;;;11.40;8.77;;;;;;;8.95;74.24;99017.16;5131688;27;20493;-47
2023/01/07 03:07:10;;;;;;;13.48;8.35;;;;;;;8.85;74.86;99013.19;5133092;27;20378;-48
2023/01/07 03:10:04;;;;;;;19.60;9.00;;;;;;;8.94;75.64;99005.06;5131781;27;20023;-48
2023/01/07 03:12:48;;;;;;;10.50;9.18;;;;;;;9.22;75.24;99004.41;5126354;27;20074;-47
2023/01/07 03:15:22;;;;;;;10.48;7.28;;;;;;;9.57;73.55;99004.56;5132932;27;20033;-48
2023/01/07 03:18:22;;;;;;;13.20;7.25;;;;;;;9.96;72.29;98991.03;5132994;27;20027;-47
2023/01/07 03:20:52;;;;;;;13.32;8.15;;;;;;;10.47;71.65;98979.53;5118894;27;20051;-48
2023/01/07 03:23:24;;;;;;;10.63;7.32;;;;;;;10.91;68.77;98974.94;5131834;27;20496;-47
2023/01/07 03:25:53;;;;;;;8.05;6.32;;;;;;;11.12;65.72;98968.75;5132804;27;20027;-48
2023/01/07 03:28:24;;;;;;;8.93;6.43;;;;;;;11.04;64.87;98974.19;5131636;28;20026;-48
2023/01/07 03:30:53;;;;;;;7.65;6.03;;;;;;;10.87;64.65;98971.88;5132665;27;20027;-47
2023/01/07 03:33:31;;;;;;;6.45;5.43;;;;;;;10.50;65.18;98973.09;5132955;27;20484;-47
2023/01/07 03:36:00;;;;;;;7.85;6.00;;;;;;;10.31;66.11;98972.78;5131361;28;20439;-47
2023/01/07 03:38:27;;;;;;;7.65;6.30;;;;;;;10.23;67.13;98972.09;5131603;28;20041;-48
2023/01/07 03:40:53;;;;;;;12.35;6.35;;;;;;;10.24;67.69;98958.78;5131178;28;20023;-48
2023/01/07 03:43:21;;;;;;;13.88;7.28;;;;;;;10.54;68.63;98955.94;5132614;27;20107;-48
2023/01/07 03:45:49;;;;;;;13.48;6.40;;;;;;;11.06;68.27;98951.97;5114157;28;20076;-48
2023/01/07 03:48:15;;;;;;;13.65;6.32;;;;;;;11.42;67.39;98945.59;5132497;27;20029;-48
2023/01/07 03:50:40;;;;;;;9.75;6.68;;;;;;;11.66;66.92;98940.78;5132607;27;20019;-47
2023/01/07 03:53:06;;;;;;;10.02;6.07;;;;;;;12.04;64.87;98937.59;5165850;27;20031;-48
2023/01/07 03:55:32;;;;;;;11.85;6.38;;;;;;;12.21;64.79;98932.72;5132462;27;20023;-48
2023/01/07 03:57:58;;;;;;;6.68;5.03;;;;;;;12.34;61.81;98930.06;5131183;28;20511;-48
2023/01/07 04:00:24;;;;;;;7.70;5.22;;;;;;;12.07;60.78;98929.28;5132384;28;20023;-48
2023/01/07 04:02:50;;;;;;;10.15;6.43;;;;;;;11.86;61.74;98931.09;5131007;28;20023;-48
2023/01/07 04:05:15;;;;;;;6.80;4.90;;;;;;;11.59;61.92;98930.28;5132632;28;20075;-47
2023/01/07 04:07:41;;;;;;;9.00;5.25;;;;;;;11.40;62.96;98924.75;5132324;27;20027;-47
2023/01/07 04:10:08;;;;;;;11.90;5.78;;;;;;;11.03;63.10;98933.97;5130978;28;20164;-47
2023/01/07 04:12:34;;;;;;;8.45;5.72;;;;;;;10.75;64.55;98927.00;5132694;27;20042;-48
2023/01/07 04:14:59;;;;;;;7.85;5.30;;;;;;;10.81;66.66;98922.78;5130965;28;20024;-48
2023/01/07 04:17:25;;;;;;;18.23;5.70;;;;;;;11.02;67.54;98921.03;5132220;28;20029;-48
2023/01/07 04:19:50;;;;;;;15.52;5.93;;;;;;;11.26;65.96;98919.69;5130661;28;20030;-48
2023/01/07 04:22:16;;;;;;;6.90;4.30;;;;;;;11.19;64.84;98925.75;5132435;27;20042;-47
2023/01/07 04:24:42;;;;;;;8.25;5.43;;;;;;;10.87;64.98;98927.25;5133985;27;20447;-48
2023/01/07 04:27:08;;;;;;;6.60;4.30;;;;;;;10.63;65.50;98922.50;5136062;27;20481;-47
2023/01/07 04:29:33;;;;;;;7.97;4.95;;;;;;;10.49;66.16;98919.81;5134642;27;20484;-47
2023/01/07 04:31:59;;;;;;;13.35;6.88;;;;;;;10.27;66.68;98913.78;5135940;27;20107;-48
2023/01/07 04:34:25;;;;;;;8.02;6.47;;;;;;;10.09;67.59;98913.47;5134945;27;20030;-47
2023/01/07 04:36:50;;;;;;;10.40;7.40;;;;;;;9.91;68.23;98909.50;5135802;27;20106;-47
2023/01/07 04:39:16;;;;;;;16.00;6.95;;;;;;;9.91;68.89;98912.13;5135783;27;20508;-48
2023/01/07 04:41:42;;;;;;;9.80;7.15;;;;;;;9.99;68.92;98909.38;5135676;27;20022;-48
2023/01/07 04:44:08;;;;;;;12.43;6.50;;;;;;;10.18;69.71;98907.91;5135732;27;20077;-48
2023/01/07 04:46:34;;;;;;;9.32;6.93;;;;;;;10.51;70.26;98891.56;5135616;27;20504;-48
2023/01/07 04:48:59;;;;;;;9.52;5.78;;;;;;;10.65;68.70;98897.69;5135890;27;20102;-48
2023/01/07 04:51:25;;;;;;;12.45;6.10;;;;;;;10.57;68.43;98903.91;5135526;27;20023;-48
2023/01/07 04:53:51;;;;;;;14.43;7.22;;;;;;;10.40;68.04;98897.34;5134232;27;20546;-47
2023/01/07 04:56:17;;;;;;;8.82;5.95;;;;;;;10.29;68.35;98897.88;5134117;27;20087;-48
2023/01/07 04:58:42;;;;;;;13.50;8.55;;;;;;;10.15;69.37;98897.78;5135417;27;20397;-47
2023/01/07 05:01:09;;;;;;;12.50;6.38;;;;;;;10.25;69.65;98896.63;5135342;27;20470;-48
2023/01/07 05:03:35;;;;;;;12.07;6.90;;;;;;;10.35;69.52;98899.75;5135401;27;20030;-48
2023/01/07 05:06:02;;;;;;;12.40;7.25;;;;;;;10.48;70.21;98886.69;5133926;27;20023;-47
2023/01/07 05:08:28;;;;;;;10.65;6.35;;;;;;;10.66;69.38;98888.78;5133996;27;20031;-47
2023/01/07 05:10:53;;;;;;;8.18;4.82;;;;;;;10.78;68.31;98891.66;5135477;27;20099;-47
2023/01/07 05:13:21;;;;;;;13.00;5.72;;;;;;;10.73;69.21;98902.75;5134155;27;20498;-48
2023/01/07 05:15:47;;;;;;;10.23;5.28;;;;;;;10.79;68.55;98893.28;5135124;27;20110;-47
2023/01/07 05:18:13;;;;;;;9.30;4.80;;;;;;;10.94;69.15;98891.31;5135073;27;20370;-47
2023/01/07 05:20:39;;;;;;;10.48;5.10;;;;;;;11.05;68.57;98897.03;5134783;27;20035;-48
2023/01/07 05:23:06;;;;;;;10.10;4.38;;;;;;;11.10;68.24;98892.78;5133547;27;20034;-48
2023/01/07 05:25:33;;;;;;;7.28;5.18;;;;;;;11.12;67.50;98895.19;5134936;27;20034;-48
2023/01/07 05:27:58;;;;;;;11.05;5.05;;;;;;;11.14;65.80;98898.44;5134912;27;20031;-48
2023/01/07 05:30:24;;;;;;;11.05;5.85;;;;;;;10.91;65.25;98896.16;5133510;27;20413;-48
2023/01/07 05:32:50;;;;;;;6.70;4.47;;;;;;;11.09;67.82;98891.16;5133520;27;20110;-47
2023/01/07 05:35:16;;;;;;;9.32;4.60;;;;;;;11.16;65.63;98886.72;5134420;27;20071;-48
2023/01/07 05:37:41;;;;;;;7.32;4.72;;;;;;;11.02;65.85;98892.94;5133297;27;20496;-48
2023/01/07 05:40:08;;;;;;;8.40;4.60;;;;;;;10.82;66.59;98895.50;5168020;27;20122;-48
2023/01/07 05:42:34;;;;;;;8.27;5.55;;;;;;;10.67;68.12;98887.00;5134522;27;20072;-48
2023/01/07 05:44:59;;;;;;;8.32;4.80;;;;;;;10.66;68.00;98886.16;5133509;27;20028;-48
2023/01/07 05:47:25;;;;;;;9.35;5.32;;;;;;;10.58;67.95;98889.78;5133474;27;20030;-48
2023/01/07 05:49:51;;;;;;;13.43;7.97;;;;;;;10.42;68.65;98889.28;5134439;27;20440;-48
2023/01/07 05:52:16;;;;;;;18.70;11.45;;;;;;;10.38;68.36;98875.72;5167696;27;20031;-48
2023/01/07 05:54:42;;;;;;;21.55;15.98;;;;;;;10.43;69.23;98875.97;5133199;27;20370;-47
2023/01/07 05:57:08;;;;;;;13.13;4.93;;;;;;;10.53;69.33;98880.88;5132976;27;20485;-47
2023/01/07 05:59:33;;;;;;;11.93;5.75;;;;;;;10.71;68.92;98885.59;5133050;27;20027;-47
2023/01/07 06:02:00;;;;;;;14.90;5.55;;;;;;;10.77;68.23;98875.09;5132865;27;20102;-48
2023/01/07 06:04:26;;;;;;;11.27;4.93;;;;;;;10.91;68.58;98878.59;5134433;27;20362;-47
2023/01/07 06:06:52;;;;;;;11.00;5.25;;;;;;;11.03;68.21;98880.63;5133003;27;20434;-47
2023/01/07 06:09:18;;;;;;;6.78;4.85;;;;;;;11.11;68.34;98877.84;5132801;27;20031;-47
2023/01/07 06:11:44;;;;;;;17.83;5.57;;;;;;;11.18;67.69;98886.53;5133936;27;20023;-48
2023/01/07 06:14:10;;;;;;;13.25;5.95;;;;;;;11.31;67.81;98875.25;5133981;27;20042;-48
2023/01/07 06:16:35;;;;;;;9.00;5.03;;;;;;;11.35;66.84;98885.16;5133919;27;20481;-48
2023/01/07 06:19:01;;;;;;;8.43;4.72;;;;;;;11.29;66.89;98885.13;5133850;27;20031;-48
2023/01/07 06:21:27;;;;;;;10.45;5.15;;;;;;;11.32;67.48;98882.09;5133530;27;20039;-47
2023/01/07 06:23:53;;;;;;;9.75;4.75;;;;;;;11.45;66.59;98878.69;5133997;27;20070;-47
2023/01/07 06:26:18;;;;;;;7.75;4.82;;;;;;;11.31;66.92;98870.00;5132433;27;20023;-48
2023/01/07 06:28:44;;;;;;;12.60;5.32;;;;;;;11.31;67.16;98876.06;5133702;27;20519;-48
2023/01/07 06:31:10;;;;;;;13.60;4.53;;;;;;;11.40;67.68;98874.84;5166940;27;20023;-48
2023/01/07 06:33:39;;;;;;;9.90;4.93;;;;;;;11.58;67.10;98878.69;5133667;27;20423;-47
2023/01/07 06:36:06;;;;;;;9.43;4.63;;;;;;;11.66;65.93;98882.94;5133411;27;20019;-47
2023/01/07 06:38:33;;;;;;;9.20;4.30;;;;;;;11.62;65.02;98876.47;5133486;27;20015;-48
2023/01/07 06:41:00;;;;;;;9.65;4.88;;;;;;;11.55;66.49;98882.53;5133409;27;20038;-48
2023/01/07 06:43:26;;;;;;;9.65;4.53;;;;;;;11.58;66.51;98873.44;5133428;27;20049;-47
2023/01/07 06:45:52;;;;;;;11.00;4.57;;;;;;;11.74;65.68;98875.66;5132310;27;20054;-48
2023/01/07 06:48:18;;;;;;;7.55;5.20;;;;;;;11.69;66.08;98872.84;5131436;27;20030;-48
2023/01/07 06:50:44;;;;;;;12.52;5.13;;;;;;;11.56;66.51;98884.16;5133223;27;20027;-48
2023/01/07 06:53:10;;;;;;;10.10;4.88;;;;;;;11.48;66.81;98881.72;5133250;27;20102;-47
2023/01/07 06:55:36;;;;;;;8.23;4.50;;;;;;;11.56;66.79;98888.59;5166637;27;20468;-48
2023/01/07 06:58:01;;;;;;;13.27;5.68;;;;;;;11.65;67.58;98891.84;5133109;27;20030;-48
2023/01/07 07:00:27;;;;;;;10.65;4.57;;;;;;;11.54;66.51;98874.84;5132066;27;20046;-48
2023/01/07 07:02:53;;;;;;;9.02;5.07;;;;;;;11.57;67.83;98874.47;5166375;27;20374;-48
2023/01/07 07:05:19;;;;;;;16.73;5.63;;;;;;;11.67;67.48;98880.13;5131725;27;20481;-47
2023/01/07 07:07:44;;;;;;;9.02;4.07;;;;;;;11.76;66.37;98868.38;5133061;27;20106;-47
2023/01/07 07:10:10;;;;;;;17.65;5.50;;;;;;;11.83;66.34;98871.03;5132951;27;20031;-48
2023/01/07 07:12:37;;;;;;;12.18;7.57;;;;;;;11.85;66.79;98870.78;5131630;27;20028;-47
2023/01/07 07:15:04;;;;;;;11.23;8.02;;;;;;;11.91;66.45;98875.28;5132877;27;20410;-47
2023/01/07 07:17:30;;;;;;;19.75;15.00;;;;;;;11.95;66.87;98868.59;5132938;27;20019;-48
2023/01/07 07:19:56;;;;;;;8.23;5.10;;;;;;;12.04;65.71;98870.00;5132584;27;20091;-48
2023/01/07 07:22:22;;;;;;;15.65;5.45;;;;;;;12.14;66.86;98873.00;5132757;27;20388;-47
2023/01/07 07:24:47;;;;;;;12.73;5.80;;;;;;;12.25;65.47;98863.66;5133122;27;20026;-47
2023/01/07 07:27:13;;;;;;;16.27;5.00;;;;;;;12.32;65.23;98869.72;5132672;27;20019;-48
2023/01/07 07:29:39;;;;;;;14.23;5.65;;;;;;;12.44;65.69;98869.91;5131372;28;20405;-48
2023/01/07 07:32:05;;;;;;;15.07;9.45;;;;;;;12.52;64.75;98864.41;5132730;28;20039;-48
2023/01/07 07:34:30;;;;;;;14.05;4.80;;;;;;;12.64;65.23;98872.47;5132659;28;20015;-47
2023/01/07 07:36:56;;;;;;;16.95;6.63;;;;;;;12.98;64.37;98873.91;5132575;28;20019;-48
2023/01/07 07:39:22;;;;;;;13.13;5.57;;;;;;;13.42;63.17;98874.09;5132675;27;20439;-45
2023/01/07 07:41:47;;;;;;;14.32;5.65;;;;;;;13.89;61.59;98874.50;5131169;28;20015;-45
2023/01/07 07:44:13;;;;;;;10.90;6.57;;;;;;;14.26;59.94;98863.19;5132646;27;20114;-45
2023/01/07 07:46:39;;;;;;;14.23;5.45;;;;;;;14.41;58.57;98870.72;5132598;27;20020;-45
2023/01/07 07:49:04;;;;;;;7.50;4.97;;;;;;;14.10;57.64;98867.19;5166146;27;20038;-46
2023/01/07 07:51:31;;;;;;;19.27;6.07;;;;;;;13.74;59.97;98874.03;5132802;27;20088;-45
2023/01/07 07:53:57;;;;;;;12.45;5.47;;;;;;;13.57;60.65;98884.31;5131203;28;20532;-45
2023/01/07 07:56:22;;;;;;;12.15;5.90;;;;;;;13.60;61.25;98883.88;5131166;28;20054;-46
2023/01/07 07:58:48;;;;;;;12.93;6.35;;;;;;;13.97;60.10;98876.06;5133189;27;20027;-45
2023/01/07 08:01:14;;;;;;;15.00;5.82;;;;;;;14.28;58.59;98872.50;5135200;27;20020;-46
2023/01/07 08:03:39;;;;;;;12.05;5.60;;;;;;;14.17;58.82;98874.03;5135484;27;20034;-45
2023/01/07 08:06:06;;;;;;;13.30;8.55;;;;;;;14.04;58.89;98876.00;5136458;27;20033;-45
2023/01/07 08:08:31;;;;;;;16.98;15.18;;;;;;;13.92;59.27;98891.72;5136458;27;20147;-45
2023/01/07 08:10:57;;;;;;;12.73;9.90;;;;;;;13.85;59.75;98885.72;5136363;27;20023;-46
2023/01/07 08:13:24;;;;;;;13.82;7.35;;;;;;;13.82;59.79;98886.13;5136949;27;20030;-46
2023/01/07 08:15:50;;;;;;;11.10;6.35;;;;;;;13.68;59.87;98886.28;5136292;27;20415;-45
2023/01/07 08:18:17;;;;;;;9.57;6.15;;;;;;;13.57;60.66;98895.66;5134958;27;20488;-45
2023/01/07 08:20:43;;;;;;;20.63;14.27;;;;;;;13.68;61.06;98888.06;5169350;27;20095;-46
2023/01/07 08:23:09;;;;;;;13.85;8.65;;;;;;;13.69;60.70;98893.16;5136126;27;20023;-45
2023/01/07 08:25:35;;;;;;;8.02;5.85;;;;;;;13.73;60.85;98886.41;5136043;27;20053;-45
2023/01/07 08:28:02;;;;;;;8.48;5.72;;;;;;;13.77;60.83;98890.22;5134735;27;20060;-45
2023/01/07 08:30:29;;;;;;;10.65;4.90;;;;;;;13.85;60.90;98888.34;5136049;27;20019;-46
2023/01/07 08:32:55;;;;;;;8.55;4.65;;;;;;;14.25;59.97;98880.06;5134622;27;20077;-46
2023/01/07 08:35:20;;;;;;;8.05;4.05;;;;;;;15.12;57.91;98887.78;5134595;27;20027;-45
2023/01/07 08:37:46;;;;;;;12.70;6.80;;;;;;;15.75;55.79;98886.44;5134828;27;20096;-45
2023/01/07 08:40:13;;;;;;;17.67;7.18;;;;;;;16.24;54.00;98888.84;5135758;27;20042;-46
2023/01/07 08:42:39;;;;;;;6.63;4.30;;;;;;;16.69;52.91;98883.69;5135675;27;20060;-46
2023/01/07 08:45:07;;;;;;;4.00;3.22;;;;;;;16.99;51.74;98888.00;5135749;27;20106;-45
2023/01/07 08:47:33;;;;;;;7.97;3.60;;;;;;;17.27;51.13;98881.88;5135695;27;20018;-45
2023/01/07 08:49:59;;;;;;;7.40;3.47;;;;;;;17.53;50.17;98899.03;5135648;27;20020;-46
2023/01/07 08:52:25;;;;;;;9.50;4.47;;;;;;;17.72;49.90;98894.28;5134193;27;20031;-46
2023/01/07 08:54:51;;;;;;;4.55;3.33;;;;;;;17.88;48.22;98892.69;5134200;27;20037;-46
2023/01/07 08:57:17;;;;;;;7.43;2.85;;;;;;;17.81;48.13;98868.16;5135492;27;20015;-46
2023/01/07 08:59:43;;;;;;;5.68;3.10;;;;;;;17.74;48.32;98878.91;5134097;27;20035;-45
2023/01/07 09:02:13;;;;;;;10.68;3.42;;;;;;;17.84;48.53;98872.19;5135364;27;20019;-46
2023/01/07 09:04:39;;;;;;;16.10;4.13;;;;;;;17.98;48.69;98868.13;5135456;27;20027;-46
2023/01/07 09:07:05;;;;;;;8.35;2.85;;;;;;;18.04;47.07;98871.69;5134263;27;20489;-46
2023/01/07 09:09:30;;;;;;;8.60;3.65;;;;;;;17.98;50.20;98862.03;5168222;27;20103;-46
2023/01/07 09:11:56;;;;;;;11.35;6.18;;;;;;;18.01;47.93;98870.31;5135050;27;20059;-46
2023/01/07 09:14:22;;;;;;;12.07;8.80;;;;;;;18.19;47.94;98873.72;5135138;27;20038;-46
2023/01/07 09:16:47;;;;;;;17.20;11.27;;;;;;;18.20;46.70;98854.91;5135046;27;20026;-46
2023/01/07 09:19:13;;;;;;;18.42;13.48;;;;;;;18.18;46.82;98872.94;5134080;27;20030;-46
2023/01/07 09:21:39;;;;;;;20.55;10.35;;;;;;;18.20;47.97;98870.84;5134622;27;20126;-46
2023/01/07 09:24:04;;;;;;;11.43;5.30;;;;;;;18.27;47.76;98860.84;5116815;27;20088;-45
2023/01/07 09:26:30;;;;;;;5.40;3.80;;;;;;;18.42;46.61;98870.84;5133629;27;20023;-46
2023/01/07 09:28:56;;;;;;;6.60;3.20;;;;;;;18.51;46.55;98871.22;5134876;27;20024;-46
2023/01/07 09:31:21;;;;;;;6.65;3.40;;;;;;;18.89;46.21;98877.53;5134802;27;20027;-46
2023/01/07 09:33:47;;;;;;;6.75;3.50;;;;;;;19.25;45.97;98877.88;5134754;27;20021;-46
2023/01/07 09:36:13;;;;;;;5.55;2.83;;;;;;;19.49;44.62;98876.50;5134725;27;20094;-46
2023/01/07 09:38:39;;;;;;;7.97;2.72;;;;;;;19.47;44.15;98861.84;5133454;27;20131;-46
2023/01/07 09:41:35;;;;;;;5.15;3.13;;;;;;;18.88;45.12;98874.06;5167934;27;20030;-46
2023/01/07 09:44:21;;;;;;;6.63;3.30;;;;;;;18.73;46.67;98895.13;5126862;27;20102;-46
2023/01/07 09:46:49;;;;;;;6.57;2.90;;;;;;;18.44;46.40;98887.34;5134560;27;20042;-46
2023/01/07 09:49:18;;;;;;;5.93;2.67;;;;;;;18.25;46.22;98868.25;5116648;27;20378;-46
2023/01/07 09:52:13;;;;;;;5.32;3.40;;;;;;;17.90;48.12;98882.63;5134335;27;20031;-46
2023/01/07 09:54:39;;;;;;;5.65;2.83;;;;;;;18.58;46.17;98881.69;5113578;27;20035;-46
2023/01/07 09:57:07;;;;;;;10.30;7.78;;;;;;;18.41;46.62;98895.84;5134322;27;20019;-46
2023/01/07 09:59:33;;;;;;;6.43;2.97;;;;;;;18.15;46.62;98897.34;5132953;27;20122;-46
2023/01/07 10:02:30;;;;;;;5.60;3.55;;;;;;;17.87;47.60;98892.97;5132801;27;20511;-46
2023/01/07 10:05:30;;;;;;;4.80;2.92;;;;;;;17.63;47.68;98887.78;5134395;27;20031;-46
2023/01/07 10:08:24;;;;;;;6.55;2.95;;;;;;;17.85;49.45;98895.84;5134150;27;20039;-45
2023/01/07 10:11:14;;;;;;;8.88;4.80;;;;;;;19.20;46.98;98885.84;5134014;27;20034;-46
2023/01/07 10:14:02;;;;;;;4.40;3.20;;;;;;;20.80;42.80;98883.94;5134095;27;20031;-46
2023/01/07 10:16:49;;;;;;;5.78;3.30;;;;;;;21.65;40.46;98867.53;5134015;27;20034;-44
2023/01/07 10:19:33;;;;;;;9.50;4.10;;;;;;;22.08;39.89;98875.22;5132634;27;20560;-44
2023/01/07 10:22:22;;;;;;;6.03;2.65;;;;;;;21.96;37.82;98869.38;5132546;27;20047;-44
2023/01/07 10:24:56;;;;;;;6.82;2.67;;;;;;;21.73;39.53;98867.00;5132810;27;20034;-44
2023/01/07 10:27:32;;;;;;;6.13;2.63;;;;;;;22.10;38.48;98852.47;5133787;27;20027;-44
2023/01/07 10:30:02;;;;;;;8.02;2.97;;;;;;;21.62;38.90;98865.38;5132418;27;20126;-44
2023/01/07 10:32:32;;;;;;;9.02;2.95;;;;;;;21.14;39.04;98838.13;5132340;27;20038;-44
2023/01/07 10:35:00;;;;;;;9.35;2.67;;;;;;;20.70;40.76;98849.25;5132328;27;20038;-44
2023/01/07 10:37:34;;;;;;;7.28;3.22;;;;;;;21.03;41.36;98837.31;5133458;27;20039;-45
2023/01/07 10:40:18;;;;;;;6.18;3.35;;;;;;;20.95;40.30;98832.50;5132523;27;20118;-44
2023/01/07 10:43:06;;;;;;;7.05;3.10;;;;;;;20.85;40.28;98833.28;5133352;27;20023;-44
2023/01/07 10:45:55;;;;;;;10.63;3.03;;;;;;;20.48;40.81;98828.06;5133446;27;20054;-44
2023/01/07 10:48:45;;;;;;;5.18;2.22;;;;;;;20.29;40.47;98811.75;5133820;27;20036;-44
2023/01/07 10:51:32;;;;;;;5.78;2.75;;;;;;;19.73;41.63;98798.97;5133650;27;20135;-44
2023/01/07 10:54:12;;;;;;;4.30;2.90;;;;;;;19.52;42.52;98806.00;5133337;27;20081;-44
2023/01/07 10:56:49;;;;;;;4.50;2.72;;;;;;;19.34;43.31;98788.56;5133226;27;20050;-43
2023/01/07 10:59:19;;;;;;;4.88;2.88;;;;;;;18.95;42.81;98783.44;5133173;27;20123;-44
2023/01/07 11:01:52;;;;;;;6.90;2.80;;;;;;;18.81;43.58;98791.03;5131742;27;20030;-44
2023/01/07 11:04:18;;;;;;;4.78;2.45;;;;;;;19.30;43.10;98780.28;5131964;27;20042;-44
2023/01/07 11:06:49;;;;;;;4.63;2.40;;;;;;;19.34;42.04;98796.53;5131744;27;20027;-44
2023/01/07 11:09:31;;;;;;;6.05;5.35;;;;;;;19.44;42.43;98790.50;5133088;27;20045;-44
2023/01/07 11:12:04;;;;;;;7.65;3.15;;;;;;;19.53;41.77;98771.09;5132986;27;20034;-44
2023/01/07 11:14:35;;;;;;;6.28;2.03;;;;;;;19.74;41.68;98800.56;5133001;27;20026;-44
2023/01/07 11:17:49;;;;;;;4.45;2.13;;;;;;;19.68;41.58;98757.09;5131616;27;20445;-44
2023/01/07 11:20:42;;;;;;;4.63;1.75;;;;;;;19.29;41.21;98789.31;5108839;27;20107;-44
2023/01/07 11:23:18;;;;;;;5.00;2.15;;;;;;;19.03;42.72;98790.16;5131478;27;20030;-44
2023/01/07 11:25:45;;;;;;;6.20;2.35;;;;;;;19.23;41.31;98766.38;5132796;27;20023;-44
2023/01/07 11:28:25;;;;;;;19.58;2.15;;;;;;;18.88;41.63;98778.34;5132798;27;20027;-45
2023/01/07 11:30:57;;;;;;;8.75;3.03;;;;;;;18.57;43.58;98777.19;5114355;28;20062;-44
2023/01/07 11:33:40;;;;;;;5.90;2.45;;;;;;;19.02;42.47;98760.09;5132991;27;20088;-44
2023/01/07 11:36:06;;;;;;;4.88;2.72;;;;;;;19.18;42.61;98774.34;5132732;27;20031;-44
2023/01/07 11:38:37;;;;;;;7.25;3.38;;;;;;;19.12;41.70;98762.84;5131334;28;20512;-44
2023/01/07 11:41:07;;;;;;;5.47;2.85;;;;;;;19.11;41.91;98765.75;5132653;27;20035;-44